Jales, Brazil
Current Conditions -  °F | °C
As of 1:00 PM on Thursday 23 Oct 2014 (Local Time) from SBSR Reporting Station
Scattered Clouds Scattered Clouds  
Wind Chill: 86°   Ceiling: Unl
Heat Index: 86°   Visibility: 6mi
Dew Point: 61°   Wind: 10mph
Humidity: 43%   Direction: 30°NNE
Pressure: 30.09"   Gusts: NA
Location:  20.26°S, 50.55°W
Report Text: SBSR 231500Z 03009KT 9999 SCT045 SCT070 30/16 Q1019
Loading
Personal Weather Stations






























Interactive Weather Map
Tropical Storm Tracking
New forecast layout! Learn more

10-Day Weather Forecast

Advertisements
Track Severe Weather on mobile